Bonifay, Florida
Current Conditions -  °F | °C
As of 8:58 PM on Wednesday 26 Nov 2014 (Local Time) from K1J0 Reporting Station
Clear Clear  
Wind Chill: 43°   Ceiling: Unl
Heat Index: 43°   Visibility: 10mi
Dew Point: 41°   Wind: 3mph
Humidity: 93%   Direction: 190°S
Pressure: 30.2"   Gusts: NA
Location:  30.79°N, 85.68°W
Report Text: K1J0 270258Z AUTO 19003KT 10SM CLR 06/05 A3020 RMK AO2 SLP213 T00610050 50003
Loading
Personal Weather Stations






























Interactive Weather Map New forecast layout! Learn more

10-Day Weather Forecast

Advertisements
Track Severe Weather on mobile